sensor_id;sensor_type;location;lat;lon;timestamp;pressure;altitude;pressure_sealevel;temperature;humidity
76766;BME280;65707;52.362;6.588;2023-02-26T00:00:35;101893.22;;;2.33;71.27
76766;BME280;65707;52.362;6.588;2023-02-26T00:03:02;101908.91;;;2.36;71.52
76766;BME280;65707;52.362;6.588;2023-02-26T00:05:29;101900.38;;;2.31;71.88
76766;BME280;65707;52.362;6.588;2023-02-26T00:07:57;101901.44;;;2.29;71.40
76766;BME280;65707;52.362;6.588;2023-02-26T00:10:24;101900.16;;;2.20;71.91
76766;BME280;65707;52.362;6.588;2023-02-26T00:12:54;101905.28;;;2.23;71.63
76766;BME280;65707;52.362;6.588;2023-02-26T00:15:22;101908.88;;;2.22;71.97
76766;BME280;65707;52.362;6.588;2023-02-26T00:17:54;101903.41;;;2.25;71.34
76766;BME280;65707;52.362;6.588;2023-02-26T00:20:28;101912.75;;;2.17;71.66
76766;BME280;65707;52.362;6.588;2023-02-26T00:22:56;101903.94;;;2.16;72.20
76766;BME280;65707;52.362;6.588;2023-02-26T00:25:24;101912.75;;;2.17;71.91
76766;BME280;65707;52.362;6.588;2023-02-26T00:27:51;101911.88;;;2.16;71.56
76766;BME280;65707;52.362;6.588;2023-02-26T00:30:22;101918.03;;;2.17;71.33
76766;BME280;65707;52.362;6.588;2023-02-26T00:32:50;101925.75;;;2.06;72.24
76766;BME280;65707;52.362;6.588;2023-02-26T00:35:17;101923.34;;;2.01;72.01
76766;BME280;65707;52.362;6.588;2023-02-26T00:38:01;101910.38;;;1.81;72.63
76766;BME280;65707;52.362;6.588;2023-02-26T00:40:37;101930.38;;;1.71;72.47
76766;BME280;65707;52.362;6.588;2023-02-26T00:43:09;101929.34;;;1.74;72.82
76766;BME280;65707;52.362;6.588;2023-02-26T00:45:43;101941.44;;;1.78;72.39
76766;BME280;65707;52.362;6.588;2023-02-26T00:48:27;101944.97;;;1.78;72.85
76766;BME280;65707;52.362;6.588;2023-02-26T00:51:09;101941.88;;;1.70;72.91
76766;BME280;65707;52.362;6.588;2023-02-26T00:53:51;101940.19;;;1.53;72.91
76766;BME280;65707;52.362;6.588;2023-02-26T00:56:24;101936.50;;;1.56;73.27
76766;BME280;65707;52.362;6.588;2023-02-26T00:58:51;101947.25;;;1.53;73.47
76766;BME280;65707;52.362;6.588;2023-02-26T01:01:22;101942.13;;;1.50;72.64
76766;BME280;65707;52.362;6.588;2023-02-26T01:03:49;101947.16;;;1.54;72.86
76766;BME280;65707;52.362;6.588;2023-02-26T01:06:19;101944.16;;;1.45;73.03
76766;BME280;65707;52.362;6.588;2023-02-26T01:08:52;101952.19;;;1.43;73.43
76766;BME280;65707;52.362;6.588;2023-02-26T01:11:24;101943.47;;;1.41;73.00
76766;BME280;65707;52.362;6.588;2023-02-26T01:13:52;101940.56;;;1.30;73.34
76766;BME280;65707;52.362;6.588;2023-02-26T01:16:23;101951.91;;;1.32;73.56
76766;BME280;65707;52.362;6.588;2023-02-26T01:18:55;101955.75;;;1.27;73.87
76766;BME280;65707;52.362;6.588;2023-02-26T01:21:31;101965.56;;;1.25;74.40
76766;BME280;65707;52.362;6.588;2023-02-26T01:24:06;101963.78;;;1.25;73.66
76766;BME280;65707;52.362;6.588;2023-02-26T01:26:38;101950.53;;;1.10;74.13
76766;BME280;65707;52.362;6.588;2023-02-26T01:29:06;101969.34;;;1.19;73.99
76766;BME280;65707;52.362;6.588;2023-02-26T01:31:38;101969.59;;;1.15;73.66
76766;BME280;65707;52.362;6.588;2023-02-26T01:34:17;101969.84;;;1.10;74.34
76766;BME280;65707;52.362;6.588;2023-02-26T01:36:54;101973.28;;;1.12;73.98
76766;BME280;65707;52.362;6.588;2023-02-26T01:39:33;101965.84;;;1.03;73.59
76766;BME280;65707;52.362;6.588;2023-02-26T01:42:13;101968.31;;;1.06;74.38
76766;BME280;65707;52.362;6.588;2023-02-26T01:44:54;101971.88;;;1.05;74.00
76766;BME280;65707;52.362;6.588;2023-02-26T01:47:28;101964.69;;;0.92;74.00
76766;BME280;65707;52.362;6.588;2023-02-26T01:50:11;101978.59;;;0.95;73.70
76766;BME280;65707;52.362;6.588;2023-02-26T01:53:18;101986.28;;;1.00;73.70
76766;BME280;65707;52.362;6.588;2023-02-26T01:55:52;101971.16;;;0.86;73.50
76766;BME280;65707;52.362;6.588;2023-02-26T01:58:23;101986.91;;;0.88;74.14
76766;BME280;65707;52.362;6.588;2023-02-26T02:00:53;101987.22;;;0.82;73.91
76766;BME280;65707;52.362;6.588;2023-02-26T02:03:21;101984.56;;;0.82;74.21
76766;BME280;65707;52.362;6.588;2023-02-26T02:05:54;101983.03;;;0.78;73.54
76766;BME280;65707;52.362;6.588;2023-02-26T02:08:24;101986.91;;;0.71;73.77
76766;BME280;65707;52.362;6.588;2023-02-26T02:10:52;101986.00;;;0.72;73.41
76766;BME280;65707;52.362;6.588;2023-02-26T02:13:31;101998.72;;;0.81;73.04
76766;BME280;65707;52.362;6.588;2023-02-26T02:16:16;101996.47;;;0.73;73.00
76766;BME280;65707;52.362;6.588;2023-02-26T02:18:54;102003.69;;;0.70;72.45
76766;BME280;65707;52.362;6.588;2023-02-26T02:21:43;102007.91;;;0.74;72.52
76766;BME280;65707;52.362;6.588;2023-02-26T02:24:27;102008.03;;;0.71;72.00
76766;BME280;65707;52.362;6.588;2023-02-26T02:27:18;102015.59;;;0.61;72.27
76766;BME280;65707;52.362;6.588;2023-02-26T02:30:07;102010.06;;;0.66;71.32
76766;BME280;65707;52.362;6.588;2023-02-26T02:32:51;102005.22;;;0.57;71.45
76766;BME280;65707;52.362;6.588;2023-02-26T02:35:25;102014.41;;;0.67;71.12
76766;BME280;65707;52.362;6.588;2023-02-26T02:38:03;102017.06;;;0.67;70.57
76766;BME280;65707;52.362;6.588;2023-02-26T02:40:39;102013.56;;;0.66;70.71
76766;BME280;65707;52.362;6.588;2023-02-26T02:43:13;102022.41;;;0.65;70.91
76766;BME280;65707;52.362;6.588;2023-02-26T02:45:44;102034.59;;;0.51;71.03
76766;BME280;65707;52.362;6.588;2023-02-26T02:48:20;102029.94;;;0.56;70.97
76766;BME280;65707;52.362;6.588;2023-02-26T02:50:53;102027.94;;;0.61;70.95
76766;BME280;65707;52.362;6.588;2023-02-26T02:53:27;102028.63;;;0.64;70.03
76766;BME280;65707;52.362;6.588;2023-02-26T02:56:03;102037.56;;;0.62;70.11
76766;BME280;65707;52.362;6.588;2023-02-26T02:58:39;102038.50;;;0.61;70.01
76766;BME280;65707;52.362;6.588;2023-02-26T03:01:10;102038.50;;;0.61;70.28
76766;BME280;65707;52.362;6.588;2023-02-26T03:03:49;102038.94;;;0.52;70.69
76766;BME280;65707;52.362;6.588;2023-02-26T03:06:20;102047.03;;;0.49;70.49
76766;BME280;65707;52.362;6.588;2023-02-26T03:08:49;102045.53;;;0.43;69.75
76766;BME280;65707;52.362;6.588;2023-02-26T03:11:18;102022.72;;;0.42;70.22
76766;BME280;65707;52.362;6.588;2023-02-26T03:13:46;102048.00;;;0.46;69.77
76766;BME280;65707;52.362;6.588;2023-02-26T03:16:26;102044.88;;;0.38;70.15
76766;BME280;65707;52.362;6.588;2023-02-26T03:19:09;102060.09;;;0.33;69.80
76766;BME280;65707;52.362;6.588;2023-02-26T03:21:47;102075.09;;;0.33;69.99
76766;BME280;65707;52.362;6.588;2023-02-26T03:24:26;102063.28;;;0.40;70.23
76766;BME280;65707;52.362;6.588;2023-02-26T03:27:02;102072.00;;;0.42;69.94
76766;BME280;65707;52.362;6.588;2023-02-26T03:29:40;102066.16;;;0.35;69.39
76766;BME280;65707;52.362;6.588;2023-02-26T03:32:15;102074.94;;;0.36;69.63
76766;BME280;65707;52.362;6.588;2023-02-26T03:34:48;102087.19;;;0.37;69.55
76766;BME280;65707;52.362;6.588;2023-02-26T03:37:23;102079.13;;;0.40;68.82
76766;BME280;65707;52.362;6.588;2023-02-26T03:39:59;102068.66;;;0.20;69.50
76766;BME280;65707;52.362;6.588;2023-02-26T03:42:34;102087.00;;;0.23;70.02
76766;BME280;65707;52.362;6.588;2023-02-26T03:45:09;102089.41;;;0.27;69.25
76766;BME280;65707;52.362;6.588;2023-02-26T03:47:41;102083.56;;;0.21;69.47
76766;BME280;65707;52.362;6.588;2023-02-26T03:50:16;102086.13;;;0.22;69.07
76766;BME280;65707;52.362;6.588;2023-02-26T03:52:49;102091.22;;;0.27;69.02
76766;BME280;65707;52.362;6.588;2023-02-26T03:55:23;102083.78;;;0.16;68.74
76766;BME280;65707;52.362;6.588;2023-02-26T03:57:55;102098.19;;;0.28;68.52
76766;BME280;65707;52.362;6.588;2023-02-26T04:00:23;102109.53;;;0.30;68.62
76766;BME280;65707;52.362;6.588;2023-02-26T04:02:57;102122.16;;;0.23;68.94
76766;BME280;65707;52.362;6.588;2023-02-26T04:05:31;102119.47;;;0.25;68.94
76766;BME280;65707;52.362;6.588;2023-02-26T04:08:02;102129.28;;;0.21;68.27
76766;BME280;65707;52.362;6.588;2023-02-26T04:10:34;102118.66;;;0.23;68.63
76766;BME280;65707;52.362;6.588;2023-02-26T04:13:06;102131.72;;;0.26;68.60
76766;BME280;65707;52.362;6.588;2023-02-26T04:15:33;102128.44;;;0.21;68.17
76766;BME280;65707;52.362;6.588;2023-02-26T04:18:00;102118.81;;;0.20;67.79
76766;BME280;65707;52.362;6.588;2023-02-26T04:20:28;102128.72;;;0.15;67.89
76766;BME280;65707;52.362;6.588;2023-02-26T04:22:55;102138.50;;;0.13;68.21
76766;BME280;65707;52.362;6.588;2023-02-26T04:25:22;102138.06;;;0.22;67.95
76766;BME280;65707;52.362;6.588;2023-02-26T04:27:49;102136.09;;;0.27;67.71
76766;BME280;65707;52.362;6.588;2023-02-26T04:30:16;102140.13;;;0.15;67.76
76766;BME280;65707;52.362;6.588;2023-02-26T04:32:43;102150.53;;;0.18;68.03
76766;BME280;65707;52.362;6.588;2023-02-26T04:35:10;102153.13;;;0.20;67.57
76766;BME280;65707;52.362;6.588;2023-02-26T04:37:38;102147.63;;;0.24;67.41
76766;BME280;65707;52.362;6.588;2023-02-26T04:40:06;102160.25;;;0.18;67.43
76766;BME280;65707;52.362;6.588;2023-02-26T04:42:34;102161.59;;;0.08;67.66
76766;BME280;65707;52.362;6.588;2023-02-26T04:45:01;102167.25;;;0.19;67.31
76766;BME280;65707;52.362;6.588;2023-02-26T04:47:28;102170.09;;;0.14;67.39
76766;BME280;65707;52.362;6.588;2023-02-26T04:49:55;102174.38;;;0.17;67.34
76766;BME280;65707;52.362;6.588;2023-02-26T04:52:21;102183.16;;;0.17;67.57
76766;BME280;65707;52.362;6.588;2023-02-26T04:54:49;102182.34;;;0.15;67.53
76766;BME280;65707;52.362;6.588;2023-02-26T04:57:16;102183.16;;;0.17;67.04
76766;BME280;65707;52.362;6.588;2023-02-26T04:59:43;102186.69;;;0.16;67.18
76766;BME280;65707;52.362;6.588;2023-02-26T05:02:10;102177.72;;;0.02;68.02
76766;BME280;65707;52.362;6.588;2023-02-26T05:04:37;102195.63;;;0.14;67.36
76766;BME280;65707;52.362;6.588;2023-02-26T05:07:04;102201.84;;;0.13;67.31
76766;BME280;65707;52.362;6.588;2023-02-26T05:09:30;102207.16;;;0.11;67.78
76766;BME280;65707;52.362;6.588;2023-02-26T05:11:58;102214.66;;;0.02;68.22
76766;BME280;65707;52.362;6.588;2023-02-26T05:14:25;102214.59;;;0.03;67.77
76766;BME280;65707;52.362;6.588;2023-02-26T05:16:55;102214.22;;;0.11;67.18
76766;BME280;65707;52.362;6.588;2023-02-26T05:19:22;102217.69;;;0.11;67.10
76766;BME280;65707;52.362;6.588;2023-02-26T05:21:49;102227.38;;;-0.08;68.47
76766;BME280;65707;52.362;6.588;2023-02-26T05:24:16;102232.19;;;0.03;68.20
76766;BME280;65707;52.362;6.588;2023-02-26T05:26:43;102219.78;;;0.05;67.81
76766;BME280;65707;52.362;6.588;2023-02-26T05:29:12;102231.25;;;0.03;68.17
76766;BME280;65707;52.362;6.588;2023-02-26T05:31:38;102237.28;;;-0.13;68.41
76766;BME280;65707;52.362;6.588;2023-02-26T05:34:06;102226.84;;;-0.16;68.68
76766;BME280;65707;52.362;6.588;2023-02-26T05:36:33;102240.22;;;-0.01;68.08
76766;BME280;65707;52.362;6.588;2023-02-26T05:39:00;102252.03;;;-0.09;68.36
76766;BME280;65707;52.362;6.588;2023-02-26T05:41:27;102249.25;;;-0.26;69.07
76766;BME280;65707;52.362;6.588;2023-02-26T05:43:54;102249.47;;;-0.11;68.54
76766;BME280;65707;52.362;6.588;2023-02-26T05:46:22;102261.75;;;-0.10;68.50
76766;BME280;65707;52.362;6.588;2023-02-26T05:48:49;102258.16;;;-0.09;68.39
76766;BME280;65707;52.362;6.588;2023-02-26T05:51:16;102281.91;;;-0.09;68.98
76766;BME280;65707;52.362;6.588;2023-02-26T05:53:43;102281.44;;;-0.18;69.34
76766;BME280;65707;52.362;6.588;2023-02-26T05:56:10;102265.56;;;-0.17;68.29
76766;BME280;65707;52.362;6.588;2023-02-26T05:58:37;102288.56;;;-0.20;69.09
76766;BME280;65707;52.362;6.588;2023-02-26T06:01:07;102279.94;;;-0.24;68.76
76766;BME280;65707;52.362;6.588;2023-02-26T06:03:35;102288.41;;;-0.17;69.03
76766;BME280;65707;52.362;6.588;2023-02-26T06:06:04;102295.50;;;-0.18;69.06
76766;BME280;65707;52.362;6.588;2023-02-26T06:08:31;102306.19;;;-0.21;69.29
76766;BME280;65707;52.362;6.588;2023-02-26T06:10:57;102308.06;;;-0.24;69.44
76766;BME280;65707;52.362;6.588;2023-02-26T06:13:24;102315.94;;;-0.23;69.26
76766;BME280;65707;52.362;6.588;2023-02-26T06:15:51;102311.69;;;-0.27;69.28
76766;BME280;65707;52.362;6.588;2023-02-26T06:18:18;102313.91;;;-0.38;69.06
76766;BME280;65707;52.362;6.588;2023-02-26T06:20:47;102324.03;;;-0.27;69.54
76766;BME280;65707;52.362;6.588;2023-02-26T06:23:13;102320.94;;;-0.17;69.26
76766;BME280;65707;52.362;6.588;2023-02-26T06:25:40;102327.16;;;-0.18;69.30
76766;BME280;65707;52.362;6.588;2023-02-26T06:28:07;102336.09;;;-0.22;69.42
76766;BME280;65707;52.362;6.588;2023-02-26T06:30:34;102346.16;;;-0.31;69.37
76766;BME280;65707;52.362;6.588;2023-02-26T06:33:01;102338.00;;;-0.47;69.82
76766;BME280;65707;52.362;6.588;2023-02-26T06:35:28;102347.63;;;-0.24;69.45
76766;BME280;65707;52.362;6.588;2023-02-26T06:37:57;102350.34;;;-0.26;69.09
76766;BME280;65707;52.362;6.588;2023-02-26T06:40:24;102347.28;;;-0.37;69.89
76766;BME280;65707;52.362;6.588;2023-02-26T06:42:50;102359.75;;;-0.20;69.44
76766;BME280;65707;52.362;6.588;2023-02-26T06:45:18;102359.22;;;-0.28;69.47
76766;BME280;65707;52.362;6.588;2023-02-26T06:47:44;102368.66;;;-0.23;69.63
76766;BME280;65707;52.362;6.588;2023-02-26T06:50:11;102377.19;;;-0.16;69.67
76766;BME280;65707;52.362;6.588;2023-02-26T06:52:39;102372.53;;;-0.10;69.15
76766;BME280;65707;52.362;6.588;2023-02-26T06:55:09;102378.63;;;-0.09;69.38
76766;BME280;65707;52.362;6.588;2023-02-26T06:57:36;102385.81;;;-0.13;69.36
76766;BME280;65707;52.362;6.588;2023-02-26T07:00:04;102390.78;;;-0.05;69.49
76766;BME280;65707;52.362;6.588;2023-02-26T07:02:32;102391.75;;;-0.08;69.45
76766;BME280;65707;52.362;6.588;2023-02-26T07:05:00;102400.47;;;-0.06;69.29
76766;BME280;65707;52.362;6.588;2023-02-26T07:07:26;102391.97;;;0.08;68.87
76766;BME280;65707;52.362;6.588;2023-02-26T07:09:55;102400.19;;;0.22;68.83
76766;BME280;65707;52.362;6.588;2023-02-26T07:12:23;102396.50;;;0.26;68.33
76766;BME280;65707;52.362;6.588;2023-02-26T07:14:50;102403.06;;;0.38;68.51
76766;BME280;65707;52.362;6.588;2023-02-26T07:17:17;102398.53;;;0.40;68.17
76766;BME280;65707;52.362;6.588;2023-02-26T07:19:46;102407.94;;;0.47;68.21
76766;BME280;65707;52.362;6.588;2023-02-26T07:22:13;102410.16;;;0.56;67.85
76766;BME280;65707;52.362;6.588;2023-02-26T07:24:41;102401.84;;;0.65;67.60
76766;BME280;65707;52.362;6.588;2023-02-26T07:27:09;102403.88;;;0.78;67.72
76766;BME280;65707;52.362;6.588;2023-02-26T07:29:38;102413.38;;;0.82;67.95
76766;BME280;65707;52.362;6.588;2023-02-26T07:32:05;102407.72;;;1.10;66.63
76766;BME280;65707;52.362;6.588;2023-02-26T07:34:33;102408.09;;;1.39;66.49
76766;BME280;65707;52.362;6.588;2023-02-26T07:36:59;102404.59;;;1.93;64.67
76766;BME280;65707;52.362;6.588;2023-02-26T07:39:27;102397.66;;;2.08;63.74
76766;BME280;65707;52.362;6.588;2023-02-26T07:41:54;102391.03;;;2.67;61.84
76766;BME280;65707;52.362;6.588;2023-02-26T07:44:21;102378.91;;;3.11;60.57
76766;BME280;65707;52.362;6.588;2023-02-26T07:46:49;102373.69;;;3.10;60.08
76766;BME280;65707;52.362;6.588;2023-02-26T07:49:16;102382.34;;;3.76;58.65
76766;BME280;65707;52.362;6.588;2023-02-26T07:51:43;102381.16;;;4.11;57.26
76766;BME280;65707;52.362;6.588;2023-02-26T07:54:10;102384.19;;;4.34;56.86
76766;BME280;65707;52.362;6.588;2023-02-26T07:56:38;102374.47;;;4.63;56.52
76766;BME280;65707;52.362;6.588;2023-02-26T07:59:07;102375.16;;;4.95;54.83
76766;BME280;65707;52.362;6.588;2023-02-26T08:01:35;102381.69;;;5.03;53.58
76766;BME280;65707;52.362;6.588;2023-02-26T08:04:03;102385.41;;;5.01;55.02
76766;BME280;65707;52.362;6.588;2023-02-26T08:06:30;102375.34;;;5.60;53.24
76766;BME280;65707;52.362;6.588;2023-02-26T08:08:59;102385.63;;;5.52;53.12
76766;BME280;65707;52.362;6.588;2023-02-26T08:11:27;102391.38;;;6.13;52.67
76766;BME280;65707;52.362;6.588;2023-02-26T08:13:56;102381.44;;;6.55;51.16
76766;BME280;65707;52.362;6.588;2023-02-26T08:16:23;102387.81;;;6.65;50.06
76766;BME280;65707;52.362;6.588;2023-02-26T08:18:53;102401.88;;;6.42;50.20
76766;BME280;65707;52.362;6.588;2023-02-26T08:21:22;102398.22;;;6.82;49.33
76766;BME280;65707;52.362;6.588;2023-02-26T08:23:49;102397.75;;;7.13;49.27
76766;BME280;65707;52.362;6.588;2023-02-26T08:26:16;102390.69;;;7.12;49.12
76766;BME280;65707;52.362;6.588;2023-02-26T08:28:44;102398.81;;;7.10;48.45
76766;BME280;65707;52.362;6.588;2023-02-26T08:31:16;102399.25;;;7.65;47.87
76766;BME280;65707;52.362;6.588;2023-02-26T08:33:43;102380.28;;;7.45;47.60
76766;BME280;65707;52.362;6.588;2023-02-26T08:36:11;102403.50;;;8.04;46.34
76766;BME280;65707;52.362;6.588;2023-02-26T08:38:40;102407.50;;;7.86;45.47
76766;BME280;65707;52.362;6.588;2023-02-26T08:41:08;102410.22;;;7.73;45.31
76766;BME280;65707;52.362;6.588;2023-02-26T08:43:35;102414.03;;;7.58;46.72
76766;BME280;65707;52.362;6.588;2023-02-26T08:46:02;102423.47;;;7.75;46.49
76766;BME280;65707;52.362;6.588;2023-02-26T08:48:29;102419.97;;;7.98;45.82
76766;BME280;65707;52.362;6.588;2023-02-26T08:50:56;102386.53;;;7.69;46.27
76766;BME280;65707;52.362;6.588;2023-02-26T08:53:26;102383.97;;;8.15;45.21
76766;BME280;65707;52.362;6.588;2023-02-26T08:55:54;102436.69;;;8.13;46.11
76766;BME280;65707;52.362;6.588;2023-02-26T08:58:21;102433.53;;;8.31;45.07
76766;BME280;65707;52.362;6.588;2023-02-26T09:00:48;102414.81;;;8.66;42.47
76766;BME280;65707;52.362;6.588;2023-02-26T09:03:15;102429.31;;;8.40;43.48
76766;BME280;65707;52.362;6.588;2023-02-26T09:05:42;102439.38;;;8.36;44.15
76766;BME280;65707;52.362;6.588;2023-02-26T09:08:11;102441.41;;;8.56;42.87
76766;BME280;65707;52.362;6.588;2023-02-26T09:10:39;102444.44;;;8.52;42.65
76766;BME280;65707;52.362;6.588;2023-02-26T09:13:08;102421.72;;;8.57;42.54
76766;BME280;65707;52.362;6.588;2023-02-26T09:15:35;102457.81;;;8.52;43.13
76766;BME280;65707;52.362;6.588;2023-02-26T09:18:03;102438.25;;;8.51;42.01
76766;BME280;65707;52.362;6.588;2023-02-26T09:20:39;102455.09;;;8.75;41.98
76766;BME280;65707;52.362;6.588;2023-02-26T09:23:07;102443.97;;;9.03;41.62
76766;BME280;65707;52.362;6.588;2023-02-26T09:25:35;102446.13;;;8.87;41.43
76766;BME280;65707;52.362;6.588;2023-02-26T09:28:02;102404.88;;;8.79;41.88
76766;BME280;65707;52.362;6.588;2023-02-26T09:30:31;102434.00;;;9.16;40.36
76766;BME280;65707;52.362;6.588;2023-02-26T09:32:58;102442.28;;;9.58;39.59
76766;BME280;65707;52.362;6.588;2023-02-26T09:35:25;102441.78;;;9.75;38.98
76766;BME280;65707;52.362;6.588;2023-02-26T09:37:52;102430.00;;;9.44;39.62
76766;BME280;65707;52.362;6.588;2023-02-26T09:40:26;102397.31;;;9.83;37.01
76766;BME280;65707;52.362;6.588;2023-02-26T09:43:14;102441.78;;;9.75;38.47
76766;BME280;65707;52.362;6.588;2023-02-26T09:46:07;102400.28;;;9.36;38.89
76766;BME280;65707;52.362;6.588;2023-02-26T09:48:39;102452.94;;;10.02;37.74
76766;BME280;65707;52.362;6.588;2023-02-26T09:51:12;102420.16;;;9.98;39.00
76766;BME280;65707;52.362;6.588;2023-02-26T09:53:47;102450.25;;;10.76;37.04
76766;BME280;65707;52.362;6.588;2023-02-26T09:56:18;102444.69;;;10.68;36.21
76766;BME280;65707;52.362;6.588;2023-02-26T09:58:49;102405.69;;;10.32;37.54
76766;BME280;65707;52.362;6.588;2023-02-26T10:01:24;102410.91;;;11.16;34.20
76766;BME280;65707;52.362;6.588;2023-02-26T10:04:05;102404.78;;;10.84;34.83
76766;BME280;65707;52.362;6.588;2023-02-26T10:06:50;102441.94;;;11.00;35.85
76766;BME280;65707;52.362;6.588;2023-02-26T10:09:32;102458.59;;;11.24;35.32
76766;BME280;65707;52.362;6.588;2023-02-26T10:12:12;102433.56;;;11.53;34.71
76766;BME280;65707;52.362;6.588;2023-02-26T10:14:49;102400.47;;;11.23;34.61
76766;BME280;65707;52.362;6.588;2023-02-26T10:17:27;102400.28;;;11.75;33.71
76766;BME280;65707;52.362;6.588;2023-02-26T10:20:02;102445.16;;;11.54;34.52
76766;BME280;65707;52.362;6.588;2023-02-26T10:22:39;102442.78;;;11.90;33.75
76766;BME280;65707;52.362;6.588;2023-02-26T10:25:13;102413.50;;;11.97;32.07
76766;BME280;65707;52.362;6.588;2023-02-26T10:27:51;102428.19;;;10.93;34.21
76766;BME280;65707;52.362;6.588;2023-02-26T10:30:32;102477.69;;;11.21;34.98
76766;BME280;65707;52.362;6.588;2023-02-26T10:33:12;102444.88;;;10.76;35.33
76766;BME280;65707;52.362;6.588;2023-02-26T10:35:49;102481.03;;;11.13;35.00
76766;BME280;65707;52.362;6.588;2023-02-26T10:38:22;102463.75;;;11.96;33.54
76766;BME280;65707;52.362;6.588;2023-02-26T10:40:54;102484.50;;;11.85;34.90
76766;BME280;65707;52.362;6.588;2023-02-26T10:43:29;102479.84;;;11.57;35.87
76766;BME280;65707;52.362;6.588;2023-02-26T10:46:11;102460.00;;;11.78;33.74
76766;BME280;65707;52.362;6.588;2023-02-26T10:48:59;102435.09;;;11.76;34.15
76766;BME280;65707;52.362;6.588;2023-02-26T10:51:40;102475.19;;;11.89;34.29
76766;BME280;65707;52.362;6.588;2023-02-26T10:54:15;102492.31;;;12.46;33.01
76766;BME280;65707;52.362;6.588;2023-02-26T10:56:47;102476.06;;;11.99;33.41
76766;BME280;65707;52.362;6.588;2023-02-26T10:59:14;102488.56;;;12.09;32.67
76766;BME280;65707;52.362;6.588;2023-02-26T11:01:41;102483.81;;;11.92;33.46
76766;BME280;65707;52.362;6.588;2023-02-26T11:04:13;102494.19;;;11.37;33.61
76766;BME280;65707;52.362;6.588;2023-02-26T11:06:44;102511.00;;;11.09;35.11
76766;BME280;65707;52.362;6.588;2023-02-26T11:09:19;102490.31;;;11.09;35.08
76766;BME280;65707;52.362;6.588;2023-02-26T11:11:51;102490.41;;;10.77;35.24
76766;BME280;65707;52.362;6.588;2023-02-26T11:14:19;102511.56;;;10.91;34.22
76766;BME280;65707;52.362;6.588;2023-02-26T11:16:51;102519.41;;;10.83;35.64
76766;BME280;65707;52.362;6.588;2023-02-26T11:19:26;102480.38;;;11.00;35.89
76766;BME280;65707;52.362;6.588;2023-02-26T11:21:56;102503.53;;;11.93;33.55
76766;BME280;65707;52.362;6.588;2023-02-26T11:24:29;102510.13;;;11.08;34.15
76766;BME280;65707;52.362;6.588;2023-02-26T11:27:03;102449.66;;;10.93;34.73
76766;BME280;65707;52.362;6.588;2023-02-26T11:29:35;102445.13;;;11.14;33.81
76766;BME280;65707;52.362;6.588;2023-02-26T11:32:06;102492.69;;;10.82;34.14
76766;BME280;65707;52.362;6.588;2023-02-26T11:34:46;102518.53;;;10.62;35.21
76766;BME280;65707;52.362;6.588;2023-02-26T11:37:19;102507.44;;;11.08;35.72
76766;BME280;65707;52.362;6.588;2023-02-26T11:39:54;102498.56;;;10.55;34.73
76766;BME280;65707;52.362;6.588;2023-02-26T11:42:22;102515.78;;;10.42;34.80
76766;BME280;65707;52.362;6.588;2023-02-26T11:44:50;102520.66;;;11.00;34.92
76766;BME280;65707;52.362;6.588;2023-02-26T11:47:21;102516.34;;;11.09;34.76
76766;BME280;65707;52.362;6.588;2023-02-26T11:49:54;102506.03;;;11.34;34.70
76766;BME280;65707;52.362;6.588;2023-02-26T11:52:28;102499.69;;;11.35;34.20
76766;BME280;65707;52.362;6.588;2023-02-26T11:55:01;102486.63;;;11.51;33.75
76766;BME280;65707;52.362;6.588;2023-02-26T11:57:32;102499.09;;;11.82;33.76
76766;BME280;65707;52.362;6.588;2023-02-26T12:00:00;102501.94;;;11.81;34.25
76766;BME280;65707;52.362;6.588;2023-02-26T12:02:44;102494.88;;;12.58;32.94
76766;BME280;65707;52.362;6.588;2023-02-26T12:05:15;102418.34;;;12.31;31.61
76766;BME280;65707;52.362;6.588;2023-02-26T12:07:43;102488.91;;;12.92;31.81
76766;BME280;65707;52.362;6.588;2023-02-26T12:10:14;102474.13;;;13.25;31.24
76766;BME280;65707;52.362;6.588;2023-02-26T12:13:00;102449.97;;;13.69;30.36
76766;BME280;65707;52.362;6.588;2023-02-26T12:15:38;102422.94;;;13.52;30.01
76766;BME280;65707;52.362;6.588;2023-02-26T12:18:35;102468.50;;;14.71;29.80
76766;BME280;65707;52.362;6.588;2023-02-26T12:21:30;102430.34;;;14.22;29.68
76766;BME280;65707;52.362;6.588;2023-02-26T12:24:36;102465.00;;;14.44;30.93
76766;BME280;65707;52.362;6.588;2023-02-26T12:27:21;102469.41;;;14.27;29.77
76766;BME280;65707;52.362;6.588;2023-02-26T12:30:08;102476.09;;;14.23;31.65
76766;BME280;65707;52.362;6.588;2023-02-26T12:33:05;102462.41;;;14.34;29.30
76766;BME280;65707;52.362;6.588;2023-02-26T12:35:46;102464.34;;;14.15;29.64
76766;BME280;65707;52.362;6.588;2023-02-26T12:38:29;102461.09;;;14.38;30.33
76766;BME280;65707;52.362;6.588;2023-02-26T12:41:23;102425.16;;;14.11;29.68
76766;BME280;65707;52.362;6.588;2023-02-26T12:44:13;102459.16;;;14.31;29.72
76766;BME280;65707;52.362;6.588;2023-02-26T12:47:04;102456.81;;;14.53;28.64
76766;BME280;65707;52.362;6.588;2023-02-26T12:53:16;102396.97;;;14.83;27.78
76766;BME280;65707;52.362;6.588;2023-02-26T12:56:03;102461.25;;;15.40;28.63
76766;BME280;65707;52.362;6.588;2023-02-26T12:59:00;102466.59;;;16.00;27.74
76766;BME280;65707;52.362;6.588;2023-02-26T13:01:48;102457.53;;;15.41;27.67
76766;BME280;65707;52.362;6.588;2023-02-26T13:04:53;102459.91;;;15.44;27.35
76766;BME280;65707;52.362;6.588;2023-02-26T13:07:48;102464.03;;;15.48;27.86
76766;BME280;65707;52.362;6.588;2023-02-26T13:10:25;102462.88;;;15.59;26.93
76766;BME280;65707;52.362;6.588;2023-02-26T13:16:26;102445.03;;;15.40;29.24
76766;BME280;65707;52.362;6.588;2023-02-26T13:19:06;102451.06;;;15.68;28.25
76766;BME280;65707;52.362;6.588;2023-02-26T13:21:44;102461.81;;;15.44;28.40
76766;BME280;65707;52.362;6.588;2023-02-26T13:24:19;102450.44;;;15.40;29.02
76766;BME280;65707;52.362;6.588;2023-02-26T13:26:51;102460.78;;;15.79;27.68
76766;BME280;65707;52.362;6.588;2023-02-26T13:29:26;102451.94;;;15.69;26.73